Colorado Springs, CO (80916)

9:06 AM MDT on April 30, 2017 (GMT -0600)
Soaring Eagles | | Change Station

Elev 6035 ft 38.78 °N, 104.73 °W | Updated 37 seconds ago

Mostly Cloudy
Mostly Cloudy
37.0 °F
Feels Like 32 °F
N
6.0
Wind Variable Wind from WSW

Today
High -- | Low -- °F
--% Chance of Precip.
Yesterday
High -- | Low -- °F
Precip. -- in
Pressure 30.03 in
Visibility 10.0 miles
Clouds Few 15000 ft
Mostly Cloudy 19000 ft
Mostly Cloudy 22000 ft
Windchill 32 °F
Dew Point 12 °F
Humidity 35%
Rainfall 0.00 in
Snow Depth Not available.
6:02 AM 7:50 PM
Waxing Crescent, 23% visible
METAR KCOS 301454Z 34017G27KT 10SM FEW150 BKN190 BKN220 02/M11 A2995 RMK AO2 PK WND 34035/1430 SLP169 T00171111 53006
Pressure 30.03 in
Visibility 10.0 miles
Clouds Few 15000 ft
Mostly Cloudy 19000 ft
Mostly Cloudy 22000 ft
Windchill 32 °F
Dew Point 12 °F
Humidity 35%
Rainfall 0.00 in
Snow Depth Not available.
6:02 AM 7:50 PM
Waxing Crescent, 23% visible
METAR KCOS 301454Z 34017G27KT 10SM FEW150 BKN190 BKN220 02/M11 A2995 RMK AO2 PK WND 34035/1430 SLP169 T00171111 53006

Get Severe Weather Alerts

Thanks for signing up!

Be on the lookout for a verification email in your inbox.

You'll start receiving the daily forecast at 8 AM.

×

10-Day Weather Forecast

Almanac

Astronomy

Apr. 30, 2017 Rise Set
Actual Time
Civil Twilight
Nautical Twilight
Astronomical Twilight
Moon
Length of Visible Light
Length of Day
Tomorrow will be .
, % of the Moon is Illuminated

Today's Extremes

State Highs State Lows

Community

WunderPhotos

WunderBlog® & News

Nearby

Air Quality

  Air Quality AQ Index Pollutant
Not available.

Snow Depth

Station Depth Elevation

Earthquake Activity

City Distance Mag. Time & Date
Minimum magnitude displayed is 2.5.

Coastal Water Temperatures

Place Temperature

Stations

Nearby Weather Stations

Station Location Temp. Windchill Dew Point Humidity Wind Precip. Elev Updated Type
                   

Watches & Warnings

There are currently no watches in effect.